createdAt,value
2019-03-03T00:02:03.238Z,4.17
2019-03-03T00:09:22.591Z,4.58
2019-03-03T00:11:52.602Z,2.33
2019-03-03T00:14:22.610Z,2.10
2019-03-03T00:16:53.059Z,3.83
2019-03-03T00:19:23.383Z,2.58
2019-03-03T00:21:53.950Z,2.75
2019-03-03T00:24:24.057Z,2.62
2019-03-03T00:26:54.160Z,2.67
2019-03-03T00:29:24.627Z,2.12
2019-03-03T00:31:55.027Z,2.72
2019-03-03T00:34:25.150Z,2.30
2019-03-03T00:37:20.462Z,2.10
2019-03-03T00:40:18.452Z,3.33
2019-03-03T00:42:56.428Z,1.70
2019-03-03T00:45:41.504Z,1.62
2019-03-03T00:48:30.240Z,2.27
2019-03-03T00:51:24.903Z,2.02
2019-03-03T00:54:12.388Z,1.77
2019-03-03T00:56:50.067Z,1.67
2019-03-03T00:59:25.643Z,4.25
2019-03-03T01:02:07.836Z,1.95
2019-03-03T01:04:48.698Z,2.75
2019-03-03T01:07:41.046Z,1.25
2019-03-03T01:10:32.647Z,1.95
2019-03-03T01:13:14.963Z,2.42
2019-03-03T01:16:07.251Z,3.05
2019-03-03T01:19:01.896Z,2.08
2019-03-03T01:21:37.479Z,3.12
2019-03-03T01:24:23.950Z,2.60
2019-03-03T01:26:53.965Z,5.40
2019-03-03T01:29:24.331Z,2.62
2019-03-03T01:31:55.499Z,3.12
2019-03-03T01:34:25.863Z,3.27
2019-03-03T01:36:55.499Z,3.60
2019-03-03T01:39:26.203Z,4.65
2019-03-03T01:41:56.533Z,2.27
2019-03-03T01:44:26.375Z,2.15
2019-03-03T01:46:55.705Z,1.75
2019-03-03T01:49:25.744Z,1.57
2019-03-03T01:51:55.880Z,3.33
2019-03-03T01:54:26.199Z,2.22
2019-03-03T01:56:56.544Z,2.27
2019-03-03T01:59:27.328Z,2.83
2019-03-03T02:01:56.985Z,3.75
2019-03-03T02:04:27.293Z,3.98
2019-03-03T02:06:57.679Z,2.95
2019-03-03T02:09:27.946Z,1.77
2019-03-03T02:11:58.695Z,2.35
2019-03-03T02:14:29.612Z,3.02
2019-03-03T02:16:59.688Z,2.70
2019-03-03T02:19:30.175Z,3.72
2019-03-03T02:22:00.534Z,2.33
2019-03-03T02:24:30.966Z,1.57
2019-03-03T02:27:01.446Z,2.90
2019-03-03T02:29:31.463Z,3.83
2019-03-03T02:32:04.132Z,3.70
2019-03-03T02:34:34.163Z,2.83
2019-03-03T02:37:03.871Z,3.22
2019-03-03T02:39:34.381Z,3.05
2019-03-03T02:42:04.100Z,3.77
2019-03-03T02:44:33.417Z,3.67
2019-03-03T02:47:03.512Z,3.52
2019-03-03T02:49:33.124Z,3.33
2019-03-03T02:52:03.281Z,5.17
2019-03-03T02:54:33.970Z,4.00
2019-03-03T02:57:04.073Z,5.28
2019-03-03T02:59:34.377Z,3.35
2019-03-03T03:02:09.460Z,2.20
2019-03-03T03:04:39.506Z,4.80
2019-03-03T03:07:20.262Z,3.83
2019-03-03T03:10:15.034Z,3.65
2019-03-03T03:13:04.109Z,4.55
2019-03-03T03:15:56.517Z,6.62
2019-03-03T03:18:51.293Z,3.65
2019-03-03T03:21:42.980Z,2.55
2019-03-03T03:24:20.474Z,2.50
2019-03-03T03:27:03.342Z,7.80
2019-03-03T03:29:47.846Z,5.62
2019-03-03T03:32:35.065Z,5.47
2019-03-03T03:35:10.511Z,5.37
2019-03-03T03:38:05.285Z,5.37
2019-03-03T03:41:09.728Z,5.50
2019-03-03T03:44:01.454Z,5.00
2019-03-03T03:46:43.401Z,8.98
2019-03-03T03:49:44.694Z,4.83
2019-03-03T03:52:29.967Z,9.83
2019-03-03T03:55:17.392Z,6.03
2019-03-03T03:58:09.443Z,4.83
2019-03-03T04:01:02.297Z,9.65
2019-03-03T04:03:57.199Z,8.35
2019-03-03T04:06:48.986Z,5.40
2019-03-03T04:09:26.048Z,8.68
2019-03-03T04:12:17.815Z,6.90
2019-03-03T04:15:10.077Z,9.05
2019-03-03T04:17:56.990Z,7.25
2019-03-03T04:20:52.168Z,8.48
2019-03-03T04:23:39.639Z,8.88
2019-03-03T04:26:23.156Z,7.35
2019-03-03T04:29:24.391Z,3.72
2019-03-03T04:32:13.556Z,5.12
2019-03-03T04:35:17.653Z,7.70
2019-03-03T04:37:55.552Z,7.53
2019-03-03T04:40:47.209Z,7.30
2019-03-03T04:43:31.043Z,7.08
2019-03-03T04:46:29.033Z,6.92
2019-03-03T04:49:23.803Z,5.10
2019-03-03T04:52:06.531Z,6.65
2019-03-03T04:54:52.723Z,11.05
2019-03-03T04:58:00.104Z,8.95
2019-03-03T05:00:48.153Z,11.38
2019-03-03T05:03:23.401Z,10.48
2019-03-03T05:06:05.727Z,7.62
2019-03-03T05:08:43.074Z,7.72
2019-03-03T05:11:49.347Z,8.78
2019-03-03T05:14:25.574Z,10.82
2019-03-03T05:17:02.083Z,9.80
2019-03-03T05:19:39.820Z,7.70
2019-03-03T05:22:10.170Z,6.65
2019-03-03T05:24:40.333Z,11.68
2019-03-03T05:27:10.408Z,7.40
2019-03-03T05:29:39.696Z,8.25
2019-03-03T05:32:09.741Z,7.45
2019-03-03T05:34:39.784Z,6.53
2019-03-03T05:37:10.177Z,7.45
2019-03-03T05:39:40.181Z,9.50
2019-03-03T05:42:09.858Z,9.90
2019-03-03T05:44:40.146Z,9.30
2019-03-03T05:47:10.930Z,5.80
2019-03-03T05:49:41.643Z,7.55
2019-03-03T05:52:11.575Z,7.28
2019-03-03T05:54:41.559Z,6.90
2019-03-03T05:57:11.161Z,7.07
2019-03-03T05:59:41.198Z,7.20
2019-03-03T06:02:11.199Z,9.20
2019-03-03T06:04:41.960Z,8.45
2019-03-03T06:07:11.955Z,8.00
2019-03-03T06:09:41.590Z,9.08
2019-03-03T06:12:11.288Z,10.50
2019-03-03T06:14:41.288Z,10.08
2019-03-03T06:17:12.872Z,9.85
2019-03-03T06:19:42.949Z,16.57
2019-03-03T06:22:13.280Z,9.60
2019-03-03T06:24:43.286Z,8.20
2019-03-03T06:27:13.896Z,12.28
2019-03-03T06:29:47.028Z,11.88
2019-03-03T06:32:17.310Z,9.20
2019-03-03T06:34:47.377Z,5.53
2019-03-03T06:38:09.934Z,9.30
2019-03-03T06:40:40.000Z,12.15
2019-03-03T06:43:10.924Z,9.33
2019-03-03T06:45:40.908Z,8.58
2019-03-03T06:49:07.552Z,7.40
2019-03-03T06:51:58.061Z,9.00
2019-03-03T06:54:49.321Z,7.70
2019-03-03T06:57:47.707Z,7.47
2019-03-03T07:00:18.929Z,8.28
2019-03-03T07:02:52.919Z,9.00
2019-03-03T07:05:43.190Z,8.00
2019-03-03T07:08:42.718Z,5.90
2019-03-03T07:11:15.301Z,10.05
2019-03-03T07:13:44.950Z,10.15
2019-03-03T07:16:14.990Z,8.00
2019-03-03T07:18:45.904Z,9.93
2019-03-03T07:21:15.198Z,8.95
2019-03-03T07:23:45.607Z,10.13
2019-03-03T07:26:16.380Z,8.73
2019-03-03T07:28:46.878Z,8.90
2019-03-03T07:31:17.530Z,8.73
2019-03-03T07:33:52.301Z,12.90
2019-03-03T07:36:22.054Z,7.67
2019-03-03T07:38:52.728Z,12.35
2019-03-03T07:41:22.765Z,9.95
2019-03-03T07:43:52.906Z,10.98
2019-03-03T07:46:23.344Z,8.53
2019-03-03T07:48:54.249Z,6.92
2019-03-03T07:51:28.929Z,9.80
2019-03-03T07:53:58.743Z,8.78
2019-03-03T07:57:30.428Z,5.12
2019-03-03T07:59:19.887Z,7.42
2019-03-03T08:01:49.552Z,9.45
2019-03-03T08:04:19.765Z,8.33
2019-03-03T08:06:50.015Z,9.55
2019-03-03T08:09:20.447Z,8.00
2019-03-03T08:11:50.463Z,11.35
2019-03-03T08:14:29.848Z,10.00
2019-03-03T08:17:02.781Z,11.22
2019-03-03T08:19:36.035Z,10.10
2019-03-03T08:22:33.213Z,10.72
2019-03-03T08:25:11.738Z,15.00
2019-03-03T08:27:42.459Z,11.90
2019-03-03T08:30:13.126Z,8.78
2019-03-03T08:32:43.862Z,12.85
2019-03-03T08:35:19.009Z,8.50
2019-03-03T08:37:55.428Z,8.70
2019-03-03T08:40:28.447Z,9.93
2019-03-03T08:43:16.477Z,6.87
2019-03-03T08:45:57.947Z,9.55
2019-03-03T08:48:46.527Z,8.18
2019-03-03T08:51:35.190Z,11.75
2019-03-03T08:54:33.555Z,7.33
2019-03-03T08:57:21.841Z,9.30
2019-03-03T09:00:04.347Z,10.32
2019-03-03T09:02:41.224Z,7.20
2019-03-03T09:05:25.289Z,9.98
2019-03-03T09:08:03.259Z,9.03
2019-03-03T09:10:39.710Z,8.43
2019-03-03T09:13:17.287Z,6.60
2019-03-03T09:15:59.506Z,9.90
2019-03-03T09:18:51.677Z,8.18
2019-03-03T09:22:04.807Z,8.63
2019-03-03T09:25:02.798Z,7.58
2019-03-03T09:28:07.576Z,7.65
2019-03-03T09:30:55.546Z,6.95
2019-03-03T09:33:44.591Z,7.15
2019-03-03T09:36:39.199Z,5.40
2019-03-03T09:39:28.270Z,6.62
2019-03-03T09:42:23.076Z,11.70
2019-03-03T09:45:18.562Z,11.45
2019-03-03T09:48:05.942Z,7.92
2019-03-03T09:50:57.910Z,4.75
2019-03-03T09:53:56.200Z,9.95
2019-03-03T09:56:50.696Z,6.58
2019-03-03T09:59:38.131Z,10.15
2019-03-03T10:02:20.015Z,4.65
2019-03-03T10:05:24.418Z,9.55
2019-03-03T10:08:13.006Z,6.45
2019-03-03T10:10:51.843Z,8.63
2019-03-03T10:13:53.918Z,7.92
2019-03-03T10:16:31.471Z,9.08
2019-03-03T10:19:08.674Z,7.25
2019-03-03T10:21:54.403Z,9.40
2019-03-03T10:24:42.622Z,11.78
2019-03-03T10:27:40.128Z,8.50
2019-03-03T10:30:27.696Z,12.58
2019-03-03T10:33:17.248Z,10.25
2019-03-03T10:36:04.923Z,9.40
2019-03-03T10:38:59.849Z,5.60
2019-03-03T10:42:07.271Z,7.67
2019-03-03T10:45:14.455Z,6.87
2019-03-03T10:47:52.050Z,7.87
2019-03-03T10:50:38.835Z,5.05
2019-03-03T10:53:37.227Z,9.70
2019-03-03T10:56:22.713Z,5.17
2019-03-03T10:59:11.372Z,5.80
2019-03-03T11:02:06.174Z,4.97
2019-03-03T11:05:14.680Z,6.53
2019-03-03T11:08:06.399Z,5.37
2019-03-03T11:10:57.800Z,8.80
2019-03-03T11:13:43.616Z,4.72
2019-03-03T11:16:42.831Z,6.62
2019-03-03T11:19:31.675Z,6.10
2019-03-03T11:22:23.338Z,8.15
2019-03-03T11:25:10.953Z,9.78
2019-03-03T11:27:55.088Z,8.73
2019-03-03T11:30:33.205Z,10.18
2019-03-03T11:33:21.249Z,8.23
2019-03-03T11:36:22.068Z,6.85
2019-03-03T11:39:15.562Z,5.00
2019-03-03T11:42:11.067Z,7.75
2019-03-03T11:44:51.300Z,7.33
2019-03-03T11:47:49.719Z,7.35
2019-03-03T11:50:27.304Z,7.87
2019-03-03T11:53:22.327Z,6.40
2019-03-03T11:56:17.106Z,5.30
2019-03-03T11:59:21.022Z,9.68
2019-03-03T12:02:10.055Z,5.47
2019-03-03T12:04:51.971Z,7.92
2019-03-03T12:07:39.185Z,6.35
2019-03-03T12:10:26.635Z,9.43
2019-03-03T12:13:21.260Z,7.20
2019-03-03T12:16:25.047Z,7.03
2019-03-03T12:19:23.166Z,8.13
2019-03-03T12:22:10.540Z,5.83
2019-03-03T12:25:08.464Z,5.03
2019-03-03T12:27:56.007Z,6.28
2019-03-03T12:30:50.517Z,8.58
2019-03-03T12:33:39.414Z,7.45
2019-03-03T12:36:36.804Z,7.42
2019-03-03T12:39:39.831Z,9.90
2019-03-03T12:42:27.547Z,7.47
2019-03-03T12:45:27.962Z,4.95
2019-03-03T12:48:26.776Z,10.23
2019-03-03T12:51:34.026Z,6.30
2019-03-03T12:54:13.813Z,6.78
2019-03-03T12:56:51.174Z,6.45
2019-03-03T12:59:40.041Z,6.87
2019-03-03T13:02:42.148Z,8.50
2019-03-03T13:05:22.262Z,7.92
2019-03-03T13:08:12.259Z,9.23
2019-03-03T13:11:10.117Z,9.83
2019-03-03T13:13:58.409Z,13.53
2019-03-03T13:16:37.688Z,10.15
2019-03-03T13:19:41.312Z,5.12
2019-03-03T13:22:42.055Z,7.92
2019-03-03T13:25:50.031Z,8.98
2019-03-03T13:28:39.820Z,8.18
2019-03-03T13:31:29.396Z,8.30
2019-03-03T13:34:06.300Z,7.03
2019-03-03T13:36:53.517Z,7.40
2019-03-03T13:39:41.839Z,4.97
2019-03-03T13:42:30.179Z,9.05
2019-03-03T13:45:00.299Z,6.37
2019-03-03T13:47:30.336Z,4.28
2019-03-03T13:50:00.448Z,5.95
2019-03-03T13:52:30.926Z,7.22
2019-03-03T13:55:00.600Z,7.17
2019-03-03T13:57:31.543Z,7.30
2019-03-03T14:00:01.669Z,10.43
2019-03-03T14:02:32.135Z,7.03
2019-03-03T14:05:03.116Z,5.42
2019-03-03T14:07:33.824Z,6.97
2019-03-03T14:10:04.992Z,8.68
2019-03-03T14:12:35.545Z,8.55
2019-03-03T14:15:07.866Z,5.95
2019-03-03T14:17:37.658Z,8.00
2019-03-03T14:20:10.674Z,4.80
2019-03-03T14:22:40.742Z,8.15
2019-03-03T14:25:10.823Z,3.70
2019-03-03T14:27:41.007Z,6.17
2019-03-03T14:30:13.663Z,7.08
2019-03-03T14:32:44.070Z,4.83
2019-03-03T14:35:15.383Z,9.38
2019-03-03T14:37:46.121Z,6.33
2019-03-03T14:40:17.551Z,7.17
2019-03-03T14:42:48.621Z,7.45
2019-03-03T14:45:19.000Z,6.62
2019-03-03T14:47:49.261Z,7.58
2019-03-03T14:50:19.248Z,5.95
2019-03-03T14:52:49.446Z,5.92
2019-03-03T14:55:20.785Z,6.17
2019-03-03T14:57:51.199Z,5.25
2019-03-03T15:00:26.180Z,6.47
2019-03-03T15:02:56.934Z,9.13
2019-03-03T15:05:28.208Z,6.12
2019-03-03T15:07:58.320Z,7.83
2019-03-03T15:10:29.473Z,5.22
2019-03-03T15:12:59.589Z,7.92
2019-03-03T15:15:30.622Z,4.03
2019-03-03T15:18:01.105Z,3.75
2019-03-03T15:20:30.939Z,6.47
2019-03-03T15:23:01.721Z,6.28
2019-03-03T15:25:32.164Z,4.65
2019-03-03T15:28:03.131Z,5.15
2019-03-03T15:30:32.814Z,7.22
2019-03-03T15:33:04.135Z,7.45
2019-03-03T15:35:34.763Z,5.20
2019-03-03T15:38:04.781Z,4.83
2019-03-03T15:40:35.555Z,4.53
2019-03-03T15:43:06.074Z,3.42
2019-03-03T15:45:36.151Z,4.72
2019-03-03T15:48:06.484Z,8.53
2019-03-03T15:50:36.915Z,4.12
2019-03-03T15:53:07.341Z,6.12
2019-03-03T15:55:37.371Z,4.05
2019-03-03T15:58:08.307Z,5.50
2019-03-03T16:00:37.874Z,4.20
2019-03-03T16:03:08.096Z,4.90
2019-03-03T16:05:38.739Z,5.30
2019-03-03T16:08:09.610Z,5.70
2019-03-03T16:10:39.983Z,4.10
2019-03-03T16:13:09.732Z,7.33
2019-03-03T16:15:39.785Z,5.20
2019-03-03T16:18:10.159Z,4.20
2019-03-03T16:20:40.443Z,6.40
2019-03-03T16:23:10.685Z,6.92
2019-03-03T16:25:41.169Z,6.10
2019-03-03T16:28:10.949Z,4.70
2019-03-03T16:30:40.542Z,9.80
2019-03-03T16:33:19.796Z,8.65
2019-03-03T16:35:43.159Z,6.95
2019-03-03T16:38:14.107Z,6.50
2019-03-03T16:40:46.137Z,5.22
2019-03-03T16:43:16.580Z,6.53
2019-03-03T16:45:47.102Z,5.37
2019-03-03T16:48:17.125Z,8.33
2019-03-03T16:50:47.526Z,4.33
2019-03-03T16:53:17.900Z,5.30
2019-03-03T16:55:47.886Z,5.83
2019-03-03T16:58:18.624Z,7.10
2019-03-03T17:00:48.642Z,7.70
2019-03-03T17:03:19.351Z,7.08
2019-03-03T17:05:49.430Z,8.33
2019-03-03T17:08:19.200Z,6.05
2019-03-03T17:10:48.916Z,6.95
2019-03-03T17:13:19.321Z,6.00
2019-03-03T17:15:49.337Z,4.08
2019-03-03T17:18:19.467Z,6.95
2019-03-03T17:20:49.959Z,3.55
2019-03-03T17:23:20.027Z,6.65
2019-03-03T17:25:50.918Z,5.85
2019-03-03T17:28:20.977Z,8.13
2019-03-03T17:30:51.404Z,6.25
2019-03-03T17:33:21.538Z,5.78
2019-03-03T17:35:51.641Z,10.58
2019-03-03T17:38:22.183Z,5.65
2019-03-03T17:40:52.710Z,6.25
2019-03-03T17:43:22.456Z,7.50
2019-03-03T17:45:52.620Z,5.10
2019-03-03T17:48:23.048Z,7.15
2019-03-03T17:50:53.304Z,7.95
2019-03-03T17:53:22.970Z,9.58
2019-03-03T17:55:53.307Z,7.80
2019-03-03T17:58:24.245Z,8.23
2019-03-03T18:00:54.884Z,7.55
2019-03-03T18:03:24.908Z,4.60
2019-03-03T18:05:54.605Z,4.72
2019-03-03T18:08:24.754Z,8.68
2019-03-03T18:10:55.612Z,6.90
2019-03-03T18:13:26.077Z,5.05
2019-03-03T18:15:56.262Z,5.47
2019-03-03T18:18:27.195Z,7.10
2019-03-03T18:20:57.561Z,8.75
2019-03-03T18:23:29.612Z,12.75
2019-03-03T18:25:59.552Z,12.88
2019-03-03T18:28:29.263Z,15.38
2019-03-03T18:30:59.588Z,9.90
2019-03-03T18:33:29.758Z,8.03
2019-03-03T18:36:00.340Z,5.33
2019-03-03T18:38:30.454Z,7.50
2019-03-03T18:41:01.336Z,9.48
2019-03-03T18:43:31.422Z,8.70
2019-03-03T18:49:51.197Z,4.97
2019-03-03T18:55:59.217Z,5.28
2019-03-03T18:58:29.304Z,6.83
2019-03-03T19:00:59.798Z,5.85
2019-03-03T19:03:29.654Z,6.12
2019-03-03T19:06:00.070Z,4.67
2019-03-03T19:08:30.526Z,4.58
2019-03-03T19:11:00.679Z,5.03
2019-03-03T19:13:55.514Z,5.92
2019-03-03T19:16:30.017Z,6.12
2019-03-03T19:19:00.615Z,6.20
2019-03-03T19:22:15.953Z,5.25
2019-03-03T19:24:46.458Z,7.05
2019-03-03T19:30:49.727Z,6.80
2019-03-03T19:33:26.941Z,5.80
2019-03-03T19:35:57.624Z,9.43
2019-03-03T19:38:29.798Z,8.50
2019-03-03T19:41:00.352Z,5.90
2019-03-03T19:43:30.811Z,7.12
2019-03-03T19:46:00.980Z,4.80
2019-03-03T19:49:05.742Z,5.90
2019-03-03T19:51:54.331Z,6.20
2019-03-03T19:54:24.042Z,6.75
2019-03-03T19:56:54.483Z,6.28
2019-03-03T19:59:24.649Z,7.83
2019-03-03T20:01:55.067Z,3.33
2019-03-03T20:04:25.586Z,5.92
2019-03-03T20:06:56.370Z,5.62
2019-03-03T20:09:26.200Z,7.72
2019-03-03T20:11:56.288Z,5.20
2019-03-03T20:14:26.308Z,4.45
2019-03-03T20:16:56.861Z,6.10
2019-03-03T20:19:27.048Z,6.00
2019-03-03T20:21:58.717Z,6.45
2019-03-03T20:24:28.851Z,6.42
2019-03-03T20:26:59.669Z,8.65
2019-03-03T20:29:30.321Z,4.87
2019-03-03T20:35:18.168Z,5.05
2019-03-03T20:37:47.992Z,4.42
2019-03-03T20:40:18.610Z,6.17
2019-03-03T20:42:49.609Z,5.05
2019-03-03T20:45:21.696Z,6.03
2019-03-03T20:47:51.838Z,6.30
2019-03-03T20:50:22.955Z,9.00
2019-03-03T20:52:53.525Z,7.12
2019-03-03T20:55:24.050Z,4.67
2019-03-03T20:57:54.150Z,5.75
2019-03-03T21:00:26.093Z,7.50
2019-03-03T21:02:56.967Z,7.87
2019-03-03T21:05:27.368Z,4.47
2019-03-03T21:07:58.112Z,5.28
2019-03-03T21:10:28.125Z,5.35
2019-03-03T21:12:58.532Z,7.85
2019-03-03T21:15:29.257Z,5.08
2019-03-03T21:17:59.674Z,4.40
2019-03-03T21:20:29.833Z,4.92
2019-03-03T21:22:59.986Z,4.15
2019-03-03T21:25:30.406Z,4.28
2019-03-03T21:28:01.309Z,3.20
2019-03-03T21:30:31.166Z,6.25
2019-03-03T21:33:01.854Z,8.18
2019-03-03T21:35:32.414Z,5.25
2019-03-03T21:38:02.611Z,5.25
2019-03-03T21:40:32.559Z,6.05
2019-03-03T21:43:03.919Z,5.33
2019-03-03T21:50:07.779Z,3.42
2019-03-03T21:52:39.353Z,4.37
2019-03-03T21:55:24.714Z,3.58
2019-03-03T21:57:54.927Z,4.75
2019-03-03T22:00:29.850Z,7.75
2019-03-03T22:03:00.434Z,5.78
2019-03-03T22:05:30.983Z,4.00
2019-03-03T22:08:01.535Z,4.92
2019-03-03T22:10:32.702Z,5.15
2019-03-03T22:13:06.750Z,2.50
2019-03-03T22:15:36.980Z,5.95
2019-03-03T22:18:06.753Z,3.35
2019-03-03T22:20:36.844Z,3.42
2019-03-03T22:23:06.914Z,3.27
2019-03-03T22:25:36.979Z,4.15
2019-03-03T22:28:07.171Z,3.15
2019-03-03T22:30:37.561Z,2.90
2019-03-03T22:33:07.896Z,3.62
2019-03-03T22:35:38.269Z,3.20
2019-03-03T22:38:27.540Z,3.47
2019-03-03T22:40:56.937Z,4.80
2019-03-03T22:43:27.108Z,1.90
2019-03-03T22:45:57.531Z,2.60
2019-03-03T22:48:27.656Z,2.85
2019-03-03T22:50:58.379Z,3.77
2019-03-03T22:53:29.116Z,2.58
2019-03-03T22:55:58.405Z,2.85
2019-03-03T22:58:28.544Z,2.92
2019-03-03T23:01:20.188Z,3.92
2019-03-03T23:04:26.723Z,2.37
2019-03-03T23:07:02.908Z,1.20
2019-03-03T23:10:15.782Z,3.08
2019-03-03T23:13:07.083Z,2.35
2019-03-03T23:16:41.048Z,1.92
2019-03-03T23:20:23.117Z,2.65
2019-03-03T23:23:34.953Z,3.40
2019-03-03T23:26:05.266Z,2.00
2019-03-03T23:28:35.615Z,3.45
2019-03-03T23:31:05.700Z,2.37
2019-03-03T23:33:36.218Z,3.15
2019-03-03T23:36:06.450Z,2.95
2019-03-03T23:38:36.897Z,1.60
2019-03-03T23:41:06.938Z,2.50
2019-03-03T23:43:37.613Z,1.90
2019-03-03T23:46:07.564Z,3.10
2019-03-03T23:48:37.902Z,3.80
2019-03-03T23:51:08.252Z,2.98
2019-03-03T23:53:38.461Z,2.33
2019-03-03T23:56:08.630Z,2.02
2019-03-03T23:58:39.405Z,1.57
